sensor_id;sensor_type;location;lat;lon;timestamp;P1;durP1;ratioP1;P2;durP2;ratioP2
75814;SDS011;64451;45.574;14.224;2022-10-31T00:00:59;1.52;;;0.98;;
75814;SDS011;64451;45.574;14.224;2022-10-31T00:02:59;1.65;;;0.88;;
75814;SDS011;64451;45.574;14.224;2022-10-31T00:05:00;2.55;;;1.10;;
75814;SDS011;64451;45.574;14.224;2022-10-31T00:07:00;6.32;;;0.77;;
75814;SDS011;64451;45.574;14.224;2022-10-31T00:09:01;0.95;;;0.80;;
75814;SDS011;64451;45.574;14.224;2022-10-31T00:13:03;1.92;;;1.05;;
75814;SDS011;64451;45.574;14.224;2022-10-31T00:15:04;1.50;;;0.98;;
75814;SDS011;64451;45.574;14.224;2022-10-31T00:17:04;0.80;;;0.70;;
75814;SDS011;64451;45.574;14.224;2022-10-31T00:19:05;2.47;;;0.98;;
75814;SDS011;64451;45.574;14.224;2022-10-31T00:21:06;2.17;;;1.08;;
75814;SDS011;64451;45.574;14.224;2022-10-31T00:23:06;0.63;;;0.57;;
75814;SDS011;64451;45.574;14.224;2022-10-31T00:25:07;2.13;;;1.10;;
75814;SDS011;64451;45.574;14.224;2022-10-31T00:27:08;1.00;;;0.82;;
75814;SDS011;64451;45.574;14.224;2022-10-31T00:29:08;3.03;;;0.90;;
75814;SDS011;64451;45.574;14.224;2022-10-31T00:31:10;2.50;;;1.13;;
75814;SDS011;64451;45.574;14.224;2022-10-31T00:33:12;1.53;;;0.87;;
75814;SDS011;64451;45.574;14.224;2022-10-31T00:35:12;1.60;;;0.90;;
75814;SDS011;64451;45.574;14.224;2022-10-31T00:37:12;2.78;;;1.42;;
75814;SDS011;64451;45.574;14.224;2022-10-31T00:39:13;0.95;;;0.70;;
75814;SDS011;64451;45.574;14.224;2022-10-31T00:41:13;0.98;;;0.57;;
75814;SDS011;64451;45.574;14.224;2022-10-31T00:43:15;2.05;;;0.93;;
75814;SDS011;64451;45.574;14.224;2022-10-31T00:45:15;1.13;;;0.73;;
75814;SDS011;64451;45.574;14.224;2022-10-31T00:47:16;0.80;;;0.80;;
75814;SDS011;64451;45.574;14.224;2022-10-31T00:49:16;1.88;;;0.73;;
75814;SDS011;64451;45.574;14.224;2022-10-31T00:51:16;2.05;;;1.00;;
75814;SDS011;64451;45.574;14.224;2022-10-31T00:53:17;1.65;;;1.00;;
75814;SDS011;64451;45.574;14.224;2022-10-31T00:55:17;1.23;;;0.70;;
75814;SDS011;64451;45.574;14.224;2022-10-31T00:57:17;1.23;;;1.00;;
75814;SDS011;64451;45.574;14.224;2022-10-31T00:59:18;2.67;;;1.45;;
75814;SDS011;64451;45.574;14.224;2022-10-31T01:01:18;1.40;;;0.80;;
75814;SDS011;64451;45.574;14.224;2022-10-31T01:03:18;1.95;;;1.20;;
75814;SDS011;64451;45.574;14.224;2022-10-31T01:05:19;2.22;;;1.15;;
75814;SDS011;64451;45.574;14.224;2022-10-31T01:07:19;1.08;;;0.85;;
75814;SDS011;64451;45.574;14.224;2022-10-31T01:09:20;2.13;;;1.10;;
75814;SDS011;64451;45.574;14.224;2022-10-31T01:11:20;1.85;;;1.10;;
75814;SDS011;64451;45.574;14.224;2022-10-31T01:13:22;3.50;;;1.02;;
75814;SDS011;64451;45.574;14.224;2022-10-31T01:15:23;2.25;;;1.30;;
75814;SDS011;64451;45.574;14.224;2022-10-31T01:17:23;1.55;;;0.70;;
75814;SDS011;64451;45.574;14.224;2022-10-31T01:19:23;2.28;;;0.90;;
75814;SDS011;64451;45.574;14.224;2022-10-31T01:21:25;0.90;;;0.80;;
75814;SDS011;64451;45.574;14.224;2022-10-31T01:23:27;1.52;;;0.80;;
75814;SDS011;64451;45.574;14.224;2022-10-31T01:25:28;1.55;;;0.80;;
75814;SDS011;64451;45.574;14.224;2022-10-31T01:27:28;2.13;;;1.05;;
75814;SDS011;64451;45.574;14.224;2022-10-31T01:29:29;3.13;;;1.50;;
75814;SDS011;64451;45.574;14.224;2022-10-31T01:31:30;2.35;;;1.15;;
75814;SDS011;64451;45.574;14.224;2022-10-31T01:33:33;2.92;;;0.60;;
75814;SDS011;64451;45.574;14.224;2022-10-31T01:35:33;2.08;;;0.95;;
75814;SDS011;64451;45.574;14.224;2022-10-31T01:37:34;1.73;;;1.25;;
75814;SDS011;64451;45.574;14.224;2022-10-31T01:39:34;1.77;;;1.20;;
75814;SDS011;64451;45.574;14.224;2022-10-31T01:41:35;1.67;;;0.90;;
75814;SDS011;64451;45.574;14.224;2022-10-31T01:43:54;2.00;;;1.05;;
75814;SDS011;64451;45.574;14.224;2022-10-31T01:45:56;2.20;;;1.40;;
75814;SDS011;64451;45.574;14.224;2022-10-31T01:47:56;1.77;;;0.95;;
75814;SDS011;64451;45.574;14.224;2022-10-31T01:49:57;1.25;;;0.80;;
75814;SDS011;64451;45.574;14.224;2022-10-31T01:54:05;3.45;;;1.15;;
75814;SDS011;64451;45.574;14.224;2022-10-31T01:56:07;1.27;;;0.75;;
75814;SDS011;64451;45.574;14.224;2022-10-31T01:58:09;2.28;;;1.27;;
75814;SDS011;64451;45.574;14.224;2022-10-31T02:00:16;1.25;;;0.65;;
75814;SDS011;64451;45.574;14.224;2022-10-31T02:04:19;0.28;;;0.25;;
75814;SDS011;64451;45.574;14.224;2022-10-31T02:06:44;1.40;;;0.70;;
75814;SDS011;64451;45.574;14.224;2022-10-31T02:08:48;1.23;;;0.73;;
75814;SDS011;64451;45.574;14.224;2022-10-31T02:10:49;1.23;;;0.88;;
75814;SDS011;64451;45.574;14.224;2022-10-31T02:12:53;2.58;;;1.25;;
75814;SDS011;64451;45.574;14.224;2022-10-31T02:14:57;1.65;;;0.90;;
75814;SDS011;64451;45.574;14.224;2022-10-31T02:16:58;0.73;;;0.60;;
75814;SDS011;64451;45.574;14.224;2022-10-31T02:18:58;0.98;;;0.70;;
75814;SDS011;64451;45.574;14.224;2022-10-31T02:31:17;1.10;;;0.80;;
75814;SDS011;64451;45.574;14.224;2022-10-31T02:33:26;1.75;;;0.77;;
75814;SDS011;64451;45.574;14.224;2022-10-31T02:35:47;0.70;;;0.70;;
75814;SDS011;64451;45.574;14.224;2022-10-31T02:40:25;1.03;;;0.83;;
75814;SDS011;64451;45.574;14.224;2022-10-31T02:45:25;1.83;;;0.88;;
75814;SDS011;64451;45.574;14.224;2022-10-31T02:47:29;3.50;;;1.00;;
75814;SDS011;64451;45.574;14.224;2022-10-31T02:54:01;0.98;;;0.57;;
75814;SDS011;64451;45.574;14.224;2022-10-31T02:56:05;0.88;;;0.82;;
75814;SDS011;64451;45.574;14.224;2022-10-31T02:58:11;1.17;;;1.02;;
75814;SDS011;64451;45.574;14.224;2022-10-31T03:00:14;1.27;;;0.88;;
75814;SDS011;64451;45.574;14.224;2022-10-31T03:11:29;1.10;;;0.70;;
75814;SDS011;64451;45.574;14.224;2022-10-31T03:13:46;0.50;;;0.50;;
75814;SDS011;64451;45.574;14.224;2022-10-31T03:15:53;1.17;;;0.80;;
75814;SDS011;64451;45.574;14.224;2022-10-31T03:18:04;0.52;;;0.40;;
75814;SDS011;64451;45.574;14.224;2022-10-31T03:20:09;1.65;;;1.10;;
75814;SDS011;64451;45.574;14.224;2022-10-31T03:22:14;1.73;;;1.02;;
75814;SDS011;64451;45.574;14.224;2022-10-31T03:24:17;5.03;;;2.30;;
75814;SDS011;64451;45.574;14.224;2022-10-31T03:26:20;1.05;;;0.90;;
75814;SDS011;64451;45.574;14.224;2022-10-31T03:28:25;3.90;;;1.52;;
75814;SDS011;64451;45.574;14.224;2022-10-31T03:30:29;0.85;;;0.63;;
75814;SDS011;64451;45.574;14.224;2022-10-31T03:32:47;0.77;;;0.73;;
75814;SDS011;64451;45.574;14.224;2022-10-31T03:34:50;2.55;;;0.90;;
75814;SDS011;64451;45.574;14.224;2022-10-31T03:36:55;1.80;;;1.17;;
75814;SDS011;64451;45.574;14.224;2022-10-31T03:38:59;1.27;;;0.75;;
75814;SDS011;64451;45.574;14.224;2022-10-31T03:41:03;1.75;;;0.93;;
75814;SDS011;64451;45.574;14.224;2022-10-31T03:43:09;0.82;;;0.77;;
75814;SDS011;64451;45.574;14.224;2022-10-31T03:45:23;1.23;;;0.80;;
75814;SDS011;64451;45.574;14.224;2022-10-31T03:47:26;1.55;;;0.93;;
75814;SDS011;64451;45.574;14.224;2022-10-31T03:49:27;0.95;;;0.73;;
75814;SDS011;64451;45.574;14.224;2022-10-31T03:51:31;1.38;;;0.82;;
75814;SDS011;64451;45.574;14.224;2022-10-31T03:53:38;0.90;;;0.60;;
75814;SDS011;64451;45.574;14.224;2022-10-31T03:55:47;1.42;;;0.77;;
75814;SDS011;64451;45.574;14.224;2022-10-31T04:00:17;1.65;;;1.17;;
75814;SDS011;64451;45.574;14.224;2022-10-31T04:02:18;0.65;;;0.60;;
75814;SDS011;64451;45.574;14.224;2022-10-31T04:04:22;1.98;;;1.10;;
75814;SDS011;64451;45.574;14.224;2022-10-31T04:06:23;1.38;;;0.90;;
75814;SDS011;64451;45.574;14.224;2022-10-31T04:08:27;1.37;;;0.93;;
75814;SDS011;64451;45.574;14.224;2022-10-31T04:10:31;2.20;;;1.10;;
75814;SDS011;64451;45.574;14.224;2022-10-31T04:12:34;1.23;;;0.80;;
75814;SDS011;64451;45.574;14.224;2022-10-31T04:14:38;2.22;;;1.15;;
75814;SDS011;64451;45.574;14.224;2022-10-31T04:16:41;2.35;;;0.80;;
75814;SDS011;64451;45.574;14.224;2022-10-31T04:18:43;3.45;;;1.25;;
75814;SDS011;64451;45.574;14.224;2022-10-31T04:20:44;1.30;;;0.70;;
75814;SDS011;64451;45.574;14.224;2022-10-31T04:22:48;2.05;;;1.05;;
75814;SDS011;64451;45.574;14.224;2022-10-31T04:24:48;1.65;;;1.00;;
75814;SDS011;64451;45.574;14.224;2022-10-31T04:26:49;1.23;;;0.82;;
75814;SDS011;64451;45.574;14.224;2022-10-31T04:28:49;3.83;;;0.90;;
75814;SDS011;64451;45.574;14.224;2022-10-31T04:30:49;1.92;;;0.80;;
75814;SDS011;64451;45.574;14.224;2022-10-31T04:32:50;0.73;;;0.70;;
75814;SDS011;64451;45.574;14.224;2022-10-31T04:34:50;2.28;;;0.93;;
75814;SDS011;64451;45.574;14.224;2022-10-31T04:36:51;0.85;;;0.52;;
75814;SDS011;64451;45.574;14.224;2022-10-31T04:38:51;2.65;;;1.23;;
75814;SDS011;64451;45.574;14.224;2022-10-31T04:40:52;2.67;;;1.40;;
75814;SDS011;64451;45.574;14.224;2022-10-31T04:42:52;2.15;;;1.23;;
75814;SDS011;64451;45.574;14.224;2022-10-31T04:44:52;0.98;;;0.85;;
75814;SDS011;64451;45.574;14.224;2022-10-31T04:46:53;0.88;;;0.73;;
75814;SDS011;64451;45.574;14.224;2022-10-31T04:48:53;0.93;;;0.60;;
75814;SDS011;64451;45.574;14.224;2022-10-31T04:50:57;1.67;;;1.30;;
75814;SDS011;64451;45.574;14.224;2022-10-31T04:52:59;0.95;;;0.68;;
75814;SDS011;64451;45.574;14.224;2022-10-31T04:54:59;1.63;;;1.17;;
75814;SDS011;64451;45.574;14.224;2022-10-31T04:56:59;1.27;;;1.08;;
75814;SDS011;64451;45.574;14.224;2022-10-31T04:59:00;1.83;;;1.02;;
75814;SDS011;64451;45.574;14.224;2022-10-31T05:01:00;2.17;;;1.17;;
75814;SDS011;64451;45.574;14.224;2022-10-31T05:03:00;2.90;;;1.15;;
75814;SDS011;64451;45.574;14.224;2022-10-31T05:05:01;1.67;;;0.80;;
75814;SDS011;64451;45.574;14.224;2022-10-31T05:07:03;1.60;;;1.02;;
75814;SDS011;64451;45.574;14.224;2022-10-31T05:09:03;1.30;;;0.98;;
75814;SDS011;64451;45.574;14.224;2022-10-31T05:11:04;1.95;;;0.80;;
75814;SDS011;64451;45.574;14.224;2022-10-31T05:13:05;2.17;;;1.02;;
75814;SDS011;64451;45.574;14.224;2022-10-31T05:15:05;1.95;;;1.00;;
75814;SDS011;64451;45.574;14.224;2022-10-31T05:17:06;0.77;;;0.75;;
75814;SDS011;64451;45.574;14.224;2022-10-31T05:19:06;0.70;;;0.70;;
75814;SDS011;64451;45.574;14.224;2022-10-31T05:21:06;2.00;;;1.05;;
75814;SDS011;64451;45.574;14.224;2022-10-31T05:23:07;1.75;;;0.90;;
75814;SDS011;64451;45.574;14.224;2022-10-31T05:25:07;1.30;;;1.20;;
75814;SDS011;64451;45.574;14.224;2022-10-31T05:27:08;1.50;;;1.17;;
75814;SDS011;64451;45.574;14.224;2022-10-31T05:29:08;11.07;;;1.00;;
75814;SDS011;64451;45.574;14.224;2022-10-31T05:31:08;1.23;;;0.70;;
75814;SDS011;64451;45.574;14.224;2022-10-31T05:33:09;2.05;;;0.98;;
75814;SDS011;64451;45.574;14.224;2022-10-31T05:35:11;1.75;;;0.93;;
75814;SDS011;64451;45.574;14.224;2022-10-31T05:37:13;2.42;;;0.90;;
75814;SDS011;64451;45.574;14.224;2022-10-31T05:39:13;2.33;;;1.25;;
75814;SDS011;64451;45.574;14.224;2022-10-31T05:41:14;1.20;;;0.85;;
75814;SDS011;64451;45.574;14.224;2022-10-31T05:43:14;1.65;;;1.20;;
75814;SDS011;64451;45.574;14.224;2022-10-31T05:45:15;1.75;;;0.93;;
75814;SDS011;64451;45.574;14.224;2022-10-31T05:47:17;2.13;;;1.27;;
75814;SDS011;64451;45.574;14.224;2022-10-31T05:49:17;1.10;;;0.98;;
75814;SDS011;64451;45.574;14.224;2022-10-31T05:51:17;1.83;;;1.08;;
75814;SDS011;64451;45.574;14.224;2022-10-31T05:53:18;2.67;;;0.98;;
75814;SDS011;64451;45.574;14.224;2022-10-31T05:55:18;4.68;;;1.02;;
75814;SDS011;64451;45.574;14.224;2022-10-31T05:57:18;2.20;;;1.48;;
75814;SDS011;64451;45.574;14.224;2022-10-31T05:59:19;3.45;;;1.10;;
75814;SDS011;64451;45.574;14.224;2022-10-31T06:01:19;1.00;;;0.65;;
75814;SDS011;64451;45.574;14.224;2022-10-31T06:03:19;0.98;;;0.65;;
75814;SDS011;64451;45.574;14.224;2022-10-31T06:05:20;1.42;;;0.75;;
75814;SDS011;64451;45.574;14.224;2022-10-31T06:07:20;1.63;;;0.88;;
75814;SDS011;64451;45.574;14.224;2022-10-31T06:09:20;1.83;;;1.23;;
75814;SDS011;64451;45.574;14.224;2022-10-31T06:11:21;1.80;;;0.70;;
75814;SDS011;64451;45.574;14.224;2022-10-31T06:13:21;1.70;;;0.95;;
75814;SDS011;64451;45.574;14.224;2022-10-31T06:15:21;1.48;;;0.82;;
75814;SDS011;64451;45.574;14.224;2022-10-31T06:17:22;2.85;;;0.98;;
75814;SDS011;64451;45.574;14.224;2022-10-31T06:19:22;20.25;;;1.20;;
75814;SDS011;64451;45.574;14.224;2022-10-31T06:21:22;1.08;;;0.75;;
75814;SDS011;64451;45.574;14.224;2022-10-31T06:23:23;1.08;;;0.60;;
75814;SDS011;64451;45.574;14.224;2022-10-31T06:25:23;1.80;;;0.90;;
75814;SDS011;64451;45.574;14.224;2022-10-31T06:27:24;1.55;;;0.68;;
75814;SDS011;64451;45.574;14.224;2022-10-31T06:29:25;0.85;;;0.65;;
75814;SDS011;64451;45.574;14.224;2022-10-31T06:31:25;2.58;;;0.98;;
75814;SDS011;64451;45.574;14.224;2022-10-31T06:33:25;1.23;;;0.75;;
75814;SDS011;64451;45.574;14.224;2022-10-31T06:35:25;0.60;;;0.52;;
75814;SDS011;64451;45.574;14.224;2022-10-31T06:37:26;0.82;;;0.80;;
75814;SDS011;64451;45.574;14.224;2022-10-31T06:39:26;1.52;;;0.77;;
75814;SDS011;64451;45.574;14.224;2022-10-31T06:41:26;1.20;;;0.77;;
75814;SDS011;64451;45.574;14.224;2022-10-31T06:43:27;1.95;;;0.82;;
75814;SDS011;64451;45.574;14.224;2022-10-31T06:45:27;1.63;;;0.68;;
75814;SDS011;64451;45.574;14.224;2022-10-31T06:47:28;2.17;;;0.90;;
75814;SDS011;64451;45.574;14.224;2022-10-31T06:49:28;2.17;;;0.98;;
75814;SDS011;64451;45.574;14.224;2022-10-31T06:51:29;0.88;;;0.70;;
75814;SDS011;64451;45.574;14.224;2022-10-31T06:53:29;0.63;;;0.60;;
75814;SDS011;64451;45.574;14.224;2022-10-31T06:55:29;1.35;;;0.73;;
75814;SDS011;64451;45.574;14.224;2022-10-31T06:57:30;0.90;;;0.70;;
75814;SDS011;64451;45.574;14.224;2022-10-31T06:59:30;1.75;;;1.20;;
75814;SDS011;64451;45.574;14.224;2022-10-31T07:01:30;2.08;;;1.17;;
75814;SDS011;64451;45.574;14.224;2022-10-31T07:03:31;1.80;;;1.45;;
75814;SDS011;64451;45.574;14.224;2022-10-31T07:05:31;1.85;;;1.13;;
75814;SDS011;64451;45.574;14.224;2022-10-31T07:07:32;0.77;;;0.70;;
75814;SDS011;64451;45.574;14.224;2022-10-31T07:09:32;1.38;;;0.80;;
75814;SDS011;64451;45.574;14.224;2022-10-31T07:11:33;2.35;;;1.25;;
75814;SDS011;64451;45.574;14.224;2022-10-31T07:13:33;2.72;;;1.60;;
75814;SDS011;64451;45.574;14.224;2022-10-31T07:15:34;2.55;;;1.73;;
75814;SDS011;64451;45.574;14.224;2022-10-31T07:17:36;5.15;;;1.58;;
75814;SDS011;64451;45.574;14.224;2022-10-31T07:19:36;3.00;;;1.88;;
75814;SDS011;64451;45.574;14.224;2022-10-31T07:21:36;3.55;;;1.67;;
75814;SDS011;64451;45.574;14.224;2022-10-31T07:23:40;3.78;;;1.67;;
75814;SDS011;64451;45.574;14.224;2022-10-31T07:25:40;2.88;;;1.65;;
75814;SDS011;64451;45.574;14.224;2022-10-31T07:27:41;3.58;;;1.65;;
75814;SDS011;64451;45.574;14.224;2022-10-31T07:29:42;3.60;;;1.77;;
75814;SDS011;64451;45.574;14.224;2022-10-31T07:31:44;4.22;;;1.98;;
75814;SDS011;64451;45.574;14.224;2022-10-31T07:33:51;3.53;;;1.75;;
75814;SDS011;64451;45.574;14.224;2022-10-31T07:35:52;4.18;;;2.15;;
75814;SDS011;64451;45.574;14.224;2022-10-31T07:37:53;4.15;;;2.35;;
75814;SDS011;64451;45.574;14.224;2022-10-31T07:39:57;5.80;;;2.55;;
75814;SDS011;64451;45.574;14.224;2022-10-31T07:41:58;4.78;;;2.55;;
75814;SDS011;64451;45.574;14.224;2022-10-31T07:43:59;4.70;;;2.55;;
75814;SDS011;64451;45.574;14.224;2022-10-31T07:46:00;4.53;;;2.95;;
75814;SDS011;64451;45.574;14.224;2022-10-31T07:48:14;3.92;;;2.33;;
75814;SDS011;64451;45.574;14.224;2022-10-31T07:50:19;3.13;;;1.67;;
75814;SDS011;64451;45.574;14.224;2022-10-31T07:52:21;4.00;;;2.35;;
75814;SDS011;64451;45.574;14.224;2022-10-31T07:54:22;5.20;;;2.53;;
75814;SDS011;64451;45.574;14.224;2022-10-31T07:56:25;3.95;;;2.47;;
75814;SDS011;64451;45.574;14.224;2022-10-31T07:58:26;5.38;;;3.13;;
75814;SDS011;64451;45.574;14.224;2022-10-31T08:00:26;4.95;;;2.20;;
75814;SDS011;64451;45.574;14.224;2022-10-31T08:02:27;5.35;;;2.80;;
75814;SDS011;64451;45.574;14.224;2022-10-31T08:04:28;6.15;;;3.47;;
75814;SDS011;64451;45.574;14.224;2022-10-31T08:06:28;5.13;;;3.08;;
75814;SDS011;64451;45.574;14.224;2022-10-31T08:08:32;5.00;;;3.20;;
75814;SDS011;64451;45.574;14.224;2022-10-31T08:10:33;4.53;;;2.60;;
75814;SDS011;64451;45.574;14.224;2022-10-31T08:12:37;5.18;;;2.63;;
75814;SDS011;64451;45.574;14.224;2022-10-31T08:14:37;5.38;;;2.92;;
75814;SDS011;64451;45.574;14.224;2022-10-31T08:16:38;5.45;;;2.85;;
75814;SDS011;64451;45.574;14.224;2022-10-31T08:18:44;4.70;;;2.42;;
75814;SDS011;64451;45.574;14.224;2022-10-31T08:23:45;3.80;;;2.75;;
75814;SDS011;64451;45.574;14.224;2022-10-31T08:25:45;6.10;;;3.75;;
75814;SDS011;64451;45.574;14.224;2022-10-31T08:27:51;8.35;;;4.13;;
75814;SDS011;64451;45.574;14.224;2022-10-31T08:29:52;7.47;;;4.60;;
75814;SDS011;64451;45.574;14.224;2022-10-31T08:31:52;8.52;;;5.05;;
75814;SDS011;64451;45.574;14.224;2022-10-31T08:33:52;8.38;;;5.13;;
75814;SDS011;64451;45.574;14.224;2022-10-31T08:35:59;7.70;;;4.47;;
75814;SDS011;64451;45.574;14.224;2022-10-31T08:38:02;8.30;;;5.30;;
75814;SDS011;64451;45.574;14.224;2022-10-31T08:40:04;7.80;;;4.43;;
75814;SDS011;64451;45.574;14.224;2022-10-31T08:42:06;9.98;;;3.67;;
75814;SDS011;64451;45.574;14.224;2022-10-31T08:44:09;5.68;;;3.03;;
75814;SDS011;64451;45.574;14.224;2022-10-31T08:46:10;6.07;;;3.88;;
75814;SDS011;64451;45.574;14.224;2022-10-31T08:48:14;5.85;;;3.25;;
75814;SDS011;64451;45.574;14.224;2022-10-31T08:50:16;6.30;;;3.10;;
75814;SDS011;64451;45.574;14.224;2022-10-31T08:52:17;7.25;;;3.75;;
75814;SDS011;64451;45.574;14.224;2022-10-31T08:54:17;6.95;;;3.35;;
75814;SDS011;64451;45.574;14.224;2022-10-31T08:56:17;6.60;;;3.78;;
75814;SDS011;64451;45.574;14.224;2022-10-31T08:58:18;8.43;;;4.13;;
75814;SDS011;64451;45.574;14.224;2022-10-31T09:00:23;7.90;;;3.50;;
75814;SDS011;64451;45.574;14.224;2022-10-31T09:02:29;6.85;;;3.67;;
75814;SDS011;64451;45.574;14.224;2022-10-31T09:04:29;6.20;;;3.47;;
75814;SDS011;64451;45.574;14.224;2022-10-31T09:06:29;7.13;;;3.72;;
75814;SDS011;64451;45.574;14.224;2022-10-31T09:08:30;5.22;;;2.70;;
75814;SDS011;64451;45.574;14.224;2022-10-31T09:10:32;5.47;;;2.67;;
75814;SDS011;64451;45.574;14.224;2022-10-31T09:14:34;4.37;;;2.40;;
75814;SDS011;64451;45.574;14.224;2022-10-31T09:16:34;5.95;;;2.88;;
75814;SDS011;64451;45.574;14.224;2022-10-31T09:18:35;5.13;;;3.25;;
75814;SDS011;64451;45.574;14.224;2022-10-31T09:20:35;5.63;;;2.80;;
75814;SDS011;64451;45.574;14.224;2022-10-31T09:22:37;4.05;;;2.80;;
75814;SDS011;64451;45.574;14.224;2022-10-31T09:24:38;8.20;;;3.47;;
75814;SDS011;64451;45.574;14.224;2022-10-31T09:26:38;6.15;;;3.05;;
75814;SDS011;64451;45.574;14.224;2022-10-31T09:28:38;5.82;;;2.90;;
75814;SDS011;64451;45.574;14.224;2022-10-31T09:30:39;6.43;;;3.22;;
75814;SDS011;64451;45.574;14.224;2022-10-31T09:32:39;5.50;;;2.90;;
75814;SDS011;64451;45.574;14.224;2022-10-31T09:34:39;5.80;;;3.00;;
75814;SDS011;64451;45.574;14.224;2022-10-31T09:36:40;6.00;;;2.78;;
75814;SDS011;64451;45.574;14.224;2022-10-31T09:38:40;4.25;;;2.58;;
75814;SDS011;64451;45.574;14.224;2022-10-31T09:52:28;4.60;;;2.70;;
75814;SDS011;64451;45.574;14.224;2022-10-31T09:56:49;5.88;;;2.70;;
75814;SDS011;64451;45.574;14.224;2022-10-31T09:58:51;5.05;;;2.30;;
75814;SDS011;64451;45.574;14.224;2022-10-31T10:00:56;4.63;;;2.25;;
75814;SDS011;64451;45.574;14.224;2022-10-31T10:05:31;6.32;;;3.30;;
75814;SDS011;64451;45.574;14.224;2022-10-31T10:10:55;4.43;;;2.13;;
75814;SDS011;64451;45.574;14.224;2022-10-31T10:19:43;3.63;;;1.92;;
75814;SDS011;64451;45.574;14.224;2022-10-31T10:21:51;6.90;;;2.45;;
75814;SDS011;64451;45.574;14.224;2022-10-31T10:24:03;3.85;;;2.00;;
75814;SDS011;64451;45.574;14.224;2022-10-31T10:26:21;3.42;;;1.38;;
75814;SDS011;64451;45.574;14.224;2022-10-31T10:28:25;1.15;;;0.95;;
75814;SDS011;64451;45.574;14.224;2022-10-31T10:30:38;7.18;;;1.33;;
75814;SDS011;64451;45.574;14.224;2022-10-31T10:32:42;3.35;;;1.00;;
75814;SDS011;64451;45.574;14.224;2022-10-31T10:34:53;11.07;;;1.55;;
75814;SDS011;64451;45.574;14.224;2022-10-31T10:37:13;2.28;;;1.30;;
75814;SDS011;64451;45.574;14.224;2022-10-31T10:39:24;3.80;;;1.15;;
75814;SDS011;64451;45.574;14.224;2022-10-31T10:41:29;3.30;;;1.60;;
75814;SDS011;64451;45.574;14.224;2022-10-31T10:43:36;6.45;;;1.63;;
75814;SDS011;64451;45.574;14.224;2022-10-31T10:45:37;4.00;;;1.45;;
75814;SDS011;64451;45.574;14.224;2022-10-31T10:47:59;4.80;;;1.75;;
75814;SDS011;64451;45.574;14.224;2022-10-31T10:50:32;3.35;;;1.08;;
75814;SDS011;64451;45.574;14.224;2022-10-31T10:57:55;2.05;;;1.15;;
75814;SDS011;64451;45.574;14.224;2022-10-31T10:59:59;4.85;;;1.48;;
75814;SDS011;64451;45.574;14.224;2022-10-31T11:02:03;2.47;;;1.08;;
75814;SDS011;64451;45.574;14.224;2022-10-31T11:04:26;2.37;;;1.20;;
75814;SDS011;64451;45.574;14.224;2022-10-31T11:06:28;5.00;;;1.65;;
75814;SDS011;64451;45.574;14.224;2022-10-31T11:08:29;6.28;;;2.10;;
75814;SDS011;64451;45.574;14.224;2022-10-31T11:12:32;6.72;;;2.60;;
75814;SDS011;64451;45.574;14.224;2022-10-31T11:14:35;5.33;;;2.63;;
75814;SDS011;64451;45.574;14.224;2022-10-31T11:16:48;5.47;;;2.55;;
75814;SDS011;64451;45.574;14.224;2022-10-31T11:18:51;5.00;;;2.40;;
75814;SDS011;64451;45.574;14.224;2022-10-31T11:20:53;6.20;;;2.10;;
75814;SDS011;64451;45.574;14.224;2022-10-31T11:23:03;6.82;;;2.30;;
75814;SDS011;64451;45.574;14.224;2022-10-31T11:25:25;7.75;;;1.90;;
75814;SDS011;64451;45.574;14.224;2022-10-31T11:27:26;4.80;;;1.70;;
75814;SDS011;64451;45.574;14.224;2022-10-31T11:29:27;5.32;;;2.20;;
75814;SDS011;64451;45.574;14.224;2022-10-31T11:31:27;5.63;;;2.03;;
75814;SDS011;64451;45.574;14.224;2022-10-31T11:33:29;6.25;;;2.30;;
75814;SDS011;64451;45.574;14.224;2022-10-31T11:35:32;4.78;;;2.33;;
75814;SDS011;64451;45.574;14.224;2022-10-31T11:37:34;7.95;;;2.28;;
75814;SDS011;64451;45.574;14.224;2022-10-31T11:39:41;3.17;;;1.58;;
75814;SDS011;64451;45.574;14.224;2022-10-31T11:41:43;4.85;;;1.98;;
75814;SDS011;64451;45.574;14.224;2022-10-31T11:43:50;7.43;;;2.28;;
75814;SDS011;64451;45.574;14.224;2022-10-31T11:45:53;6.65;;;3.05;;
75814;SDS011;64451;45.574;14.224;2022-10-31T11:47:54;8.55;;;3.40;;
75814;SDS011;64451;45.574;14.224;2022-10-31T11:49:56;8.35;;;3.05;;
75814;SDS011;64451;45.574;14.224;2022-10-31T11:51:59;4.90;;;2.40;;
75814;SDS011;64451;45.574;14.224;2022-10-31T11:54:15;10.90;;;7.25;;
75814;SDS011;64451;45.574;14.224;2022-10-31T11:58:24;5.27;;;2.37;;
75814;SDS011;64451;45.574;14.224;2022-10-31T12:00:29;8.20;;;2.50;;
75814;SDS011;64451;45.574;14.224;2022-10-31T12:02:36;4.22;;;2.40;;
75814;SDS011;64451;45.574;14.224;2022-10-31T12:04:39;6.00;;;2.38;;
75814;SDS011;64451;45.574;14.224;2022-10-31T12:06:44;4.97;;;2.40;;
75814;SDS011;64451;45.574;14.224;2022-10-31T12:08:46;4.03;;;2.10;;
75814;SDS011;64451;45.574;14.224;2022-10-31T12:13:30;4.60;;;1.70;;
75814;SDS011;64451;45.574;14.224;2022-10-31T12:15:35;3.75;;;1.55;;
75814;SDS011;64451;45.574;14.224;2022-10-31T12:17:40;4.15;;;1.70;;
75814;SDS011;64451;45.574;14.224;2022-10-31T12:20:05;4.00;;;1.73;;
75814;SDS011;64451;45.574;14.224;2022-10-31T12:34:29;6.57;;;1.58;;
75814;SDS011;64451;45.574;14.224;2022-10-31T12:39:15;3.88;;;1.42;;
75814;SDS011;64451;45.574;14.224;2022-10-31T12:44:22;4.22;;;1.70;;
75814;SDS011;64451;45.574;14.224;2022-10-31T12:55:41;3.83;;;1.48;;
75814;SDS011;64451;45.574;14.224;2022-10-31T12:57:51;3.00;;;1.47;;
75814;SDS011;64451;45.574;14.224;2022-10-31T13:00:00;1.58;;;1.13;;
75814;SDS011;64451;45.574;14.224;2022-10-31T13:07:02;1.92;;;1.20;;
75814;SDS011;64451;45.574;14.224;2022-10-31T13:09:12;1.92;;;0.93;;
75814;SDS011;64451;45.574;14.224;2022-10-31T13:11:25;2.97;;;0.98;;
75814;SDS011;64451;45.574;14.224;2022-10-31T13:13:33;1.38;;;0.77;;
75814;SDS011;64451;45.574;14.224;2022-10-31T13:15:49;2.53;;;0.90;;
75814;SDS011;64451;45.574;14.224;2022-10-31T13:17:53;1.40;;;0.80;;
75814;SDS011;64451;45.574;14.224;2022-10-31T13:22:23;0.60;;;0.45;;
75814;SDS011;64451;45.574;14.224;2022-10-31T13:24:46;1.83;;;0.80;;
75814;SDS011;64451;45.574;14.224;2022-10-31T13:29:31;4.53;;;1.10;;
75814;SDS011;64451;45.574;14.224;2022-10-31T13:31:33;5.05;;;1.17;;
75814;SDS011;64451;45.574;14.224;2022-10-31T13:45:15;0.77;;;0.63;;
75814;SDS011;64451;45.574;14.224;2022-10-31T13:47:29;1.55;;;0.80;;
75814;SDS011;64451;45.574;14.224;2022-10-31T13:51:30;3.08;;;0.90;;
75814;SDS011;64451;45.574;14.224;2022-10-31T13:53:44;0.63;;;0.63;;
75814;SDS011;64451;45.574;14.224;2022-10-31T13:56:03;2.33;;;0.65;;
75814;SDS011;64451;45.574;14.224;2022-10-31T13:58:31;2.95;;;1.00;;
75814;SDS011;64451;45.574;14.224;2022-10-31T14:00:32;3.13;;;0.98;;
75814;SDS011;64451;45.574;14.224;2022-10-31T14:02:35;2.20;;;0.77;;
75814;SDS011;64451;45.574;14.224;2022-10-31T14:04:48;4.20;;;1.20;;
75814;SDS011;64451;45.574;14.224;2022-10-31T14:09:49;2.28;;;0.68;;
75814;SDS011;64451;45.574;14.224;2022-10-31T14:12:03;2.08;;;0.77;;
75814;SDS011;64451;45.574;14.224;2022-10-31T14:14:08;2.03;;;0.80;;
75814;SDS011;64451;45.574;14.224;2022-10-31T14:18:25;3.67;;;0.95;;
75814;SDS011;64451;45.574;14.224;2022-10-31T14:22:32;1.85;;;0.70;;
75814;SDS011;64451;45.574;14.224;2022-10-31T14:24:34;2.27;;;0.97;;
75814;SDS011;64451;45.574;14.224;2022-10-31T14:26:36;0.93;;;0.80;;
75814;SDS011;64451;45.574;14.224;2022-10-31T14:28:36;1.23;;;0.70;;
75814;SDS011;64451;45.574;14.224;2022-10-31T14:30:37;0.65;;;0.47;;